createdAt,value
2023-06-21T00:00:24.147Z,58.09
2023-06-21T00:02:52.580Z,58.37
2023-06-21T00:05:20.250Z,58.45
2023-06-21T00:07:49.155Z,58.51
2023-06-21T00:10:16.697Z,59.04
2023-06-21T00:12:44.138Z,59.16
2023-06-21T00:15:11.778Z,58.72
2023-06-21T00:17:39.330Z,59.08
2023-06-21T00:20:10.234Z,59.48
2023-06-21T00:22:38.763Z,59.73
2023-06-21T00:25:08.146Z,60.15
2023-06-21T00:27:38.827Z,60.26
2023-06-21T00:30:06.856Z,60.47
2023-06-21T00:32:34.673Z,59.42
2023-06-21T00:35:02.136Z,59.75
2023-06-21T00:37:29.895Z,59.64
2023-06-21T00:39:57.311Z,59.58
2023-06-21T00:42:26.435Z,60.17
2023-06-21T00:44:53.928Z,60.22
2023-06-21T00:47:21.581Z,60.65
2023-06-21T00:49:49.178Z,60.63
2023-06-21T00:52:18.585Z,59.84
2023-06-21T00:54:46.711Z,60.33
2023-06-21T00:57:15.264Z,60.98
2023-06-21T00:59:42.843Z,60.75
2023-06-21T01:02:10.528Z,60.93
2023-06-21T01:04:38.017Z,60.37
2023-06-21T01:07:21.315Z,60.86
2023-06-21T01:10:19.596Z,61.03
2023-06-21T01:13:08.353Z,61.17
2023-06-21T01:15:45.276Z,62.05
2023-06-21T01:18:17.032Z,61.85
2023-06-21T01:20:52.466Z,62.53
2023-06-21T01:23:39.792Z,62.73
2023-06-21T01:26:07.942Z,62.66
2023-06-21T01:29:09.224Z,62.74
2023-06-21T01:31:40.288Z,63.02
2023-06-21T01:34:09.935Z,63.50
2023-06-21T01:36:40.927Z,62.74
2023-06-21T01:39:10.835Z,62.17
2023-06-21T01:41:40.063Z,62.12
2023-06-21T01:44:10.724Z,62.23
2023-06-21T01:46:39.868Z,62.32
2023-06-21T01:49:10.950Z,62.80
2023-06-21T01:51:41.452Z,62.63
2023-06-21T01:54:27.054Z,63.19
2023-06-21T01:57:00.744Z,63.74
2023-06-21T01:59:30.102Z,63.96
2023-06-21T02:02:04.580Z,62.97
2023-06-21T02:04:34.547Z,63.04
2023-06-21T02:07:03.680Z,63.02
2023-06-21T02:09:32.279Z,62.80
2023-06-21T02:12:01.470Z,62.36
2023-06-21T02:14:29.666Z,61.85
2023-06-21T02:16:57.079Z,61.82
2023-06-21T02:19:26.220Z,60.94
2023-06-21T02:21:53.782Z,60.94
2023-06-21T02:24:21.323Z,60.67
2023-06-21T02:26:49.604Z,60.89
2023-06-21T02:29:17.076Z,61.28
2023-06-21T02:31:44.606Z,62.05
2023-06-21T02:34:15.092Z,62.37
2023-06-21T02:36:48.959Z,62.71
2023-06-21T02:39:16.550Z,62.76
2023-06-21T02:41:43.984Z,63.67
2023-06-21T02:44:13.223Z,64.61
2023-06-21T02:46:40.706Z,64.73
2023-06-21T02:49:08.406Z,64.87
2023-06-21T02:51:37.628Z,64.65
2023-06-21T02:54:05.402Z,64.80
2023-06-21T02:56:32.976Z,65.14
2023-06-21T02:59:00.696Z,65.04
2023-06-21T03:01:28.194Z,64.98
2023-06-21T03:03:56.458Z,64.52
2023-06-21T03:06:24.873Z,64.37
2023-06-21T03:08:52.763Z,64.17
2023-06-21T03:11:20.188Z,63.87
2023-06-21T03:13:48.812Z,64.72
2023-06-21T03:16:16.800Z,64.89
2023-06-21T03:18:44.548Z,65.00
2023-06-21T03:21:11.937Z,65.04
2023-06-21T03:23:40.261Z,65.27
2023-06-21T03:26:08.894Z,65.49
2023-06-21T03:28:36.468Z,66.09
2023-06-21T03:31:04.463Z,65.89
2023-06-21T03:33:32.671Z,66.53
2023-06-21T03:36:00.351Z,66.83
2023-06-21T03:38:27.971Z,67.20
2023-06-21T03:40:55.677Z,66.83
2023-06-21T03:43:23.303Z,66.53
2023-06-21T03:45:52.158Z,66.86
2023-06-21T03:48:19.671Z,66.69
2023-06-21T03:50:47.415Z,66.83
2023-06-21T03:53:14.963Z,67.06
2023-06-21T03:55:44.512Z,67.07
2023-06-21T03:58:13.716Z,67.06
2023-06-21T04:00:41.263Z,66.89
2023-06-21T04:03:08.894Z,66.70
2023-06-21T04:05:36.485Z,67.00
2023-06-21T04:08:06.138Z,67.74
2023-06-21T04:10:34.800Z,68.06
2023-06-21T04:13:02.238Z,68.42
2023-06-21T04:15:31.330Z,68.70
2023-06-21T04:18:01.274Z,69.28
2023-06-21T04:20:29.016Z,69.88
2023-06-21T04:22:56.730Z,70.52
2023-06-21T04:25:24.226Z,70.52
2023-06-21T04:27:51.712Z,70.55
2023-06-21T04:30:19.998Z,70.14
2023-06-21T04:32:48.318Z,70.49
2023-06-21T04:35:17.587Z,71.20
2023-06-21T04:37:46.739Z,71.60
2023-06-21T04:40:19.796Z,72.25
2023-06-21T04:42:49.062Z,72.15
2023-06-21T04:45:17.797Z,72.23
2023-06-21T04:47:49.180Z,71.53
2023-06-21T04:52:50.010Z,70.94
2023-06-21T04:55:21.786Z,71.10
2023-06-21T04:57:49.836Z,71.33
2023-06-21T05:00:18.769Z,71.13
2023-06-21T05:02:48.695Z,71.34
2023-06-21T05:05:16.859Z,71.40
2023-06-21T05:07:44.456Z,71.58
2023-06-21T05:10:12.160Z,72.06
2023-06-21T05:12:39.790Z,72.95
2023-06-21T05:15:07.782Z,72.97
2023-06-21T05:17:35.878Z,72.71
2023-06-21T05:20:05.072Z,74.23
2023-06-21T05:22:33.122Z,73.10
2023-06-21T05:25:03.280Z,73.38
2023-06-21T05:27:33.850Z,72.34
2023-06-21T05:30:01.310Z,71.94
2023-06-21T05:32:29.742Z,71.66
2023-06-21T05:34:57.284Z,70.67
2023-06-21T05:37:24.810Z,71.23
2023-06-21T05:39:52.400Z,70.67
2023-06-21T05:42:19.994Z,70.27
2023-06-21T05:44:47.477Z,70.21
2023-06-21T05:47:15.562Z,70.03
2023-06-21T05:49:43.462Z,69.26
2023-06-21T05:52:11.044Z,66.42
2023-06-21T05:54:42.825Z,63.77
2023-06-21T05:57:10.762Z,61.57
2023-06-21T06:00:12.970Z,60.58
2023-06-21T06:02:42.932Z,61.70
2023-06-21T06:05:10.962Z,62.15
2023-06-21T06:07:39.125Z,61.60
2023-06-21T06:10:06.960Z,62.06
2023-06-21T06:12:34.888Z,62.49
2023-06-21T06:15:02.719Z,62.83
2023-06-21T06:17:31.508Z,62.71
2023-06-21T06:19:59.077Z,61.71
2023-06-21T06:22:26.694Z,59.47
2023-06-21T06:24:54.589Z,59.17
2023-06-21T06:27:21.942Z,59.11
2023-06-21T06:29:49.376Z,58.24
2023-06-21T06:32:16.912Z,54.38
2023-06-21T06:34:44.309Z,52.96
2023-06-21T06:37:15.515Z,53.05
2023-06-21T06:39:45.329Z,53.17
2023-06-21T06:42:12.789Z,53.38
2023-06-21T06:44:41.725Z,54.29
2023-06-21T06:47:09.174Z,53.90
2023-06-21T06:49:36.667Z,54.62
2023-06-21T06:52:04.504Z,56.06
2023-06-21T06:54:32.057Z,56.65
2023-06-21T06:56:59.427Z,56.77
2023-06-21T06:59:29.222Z,55.70
2023-06-21T07:02:05.048Z,56.01
2023-06-21T07:04:32.711Z,54.84
2023-06-21T07:07:02.301Z,55.29
2023-06-21T07:09:29.800Z,54.94
2023-06-21T07:12:00.557Z,54.35
2023-06-21T07:14:28.790Z,54.58
2023-06-21T07:16:56.325Z,54.97
2023-06-21T07:19:23.846Z,55.06
2023-06-21T07:21:51.532Z,54.53
2023-06-21T07:24:19.049Z,54.47
2023-06-21T07:26:46.485Z,54.46
2023-06-21T07:29:14.028Z,53.62
2023-06-21T07:31:41.411Z,53.63
2023-06-21T07:34:10.791Z,54.00
2023-06-21T07:36:41.367Z,53.80
2023-06-21T07:39:09.576Z,53.84
2023-06-21T07:41:38.045Z,53.69
2023-06-21T07:44:05.597Z,53.06
2023-06-21T07:46:33.181Z,53.40
2023-06-21T07:49:00.680Z,53.00
2023-06-21T07:51:28.148Z,52.92
2023-06-21T07:53:55.946Z,52.50
2023-06-21T07:56:23.486Z,52.25
2023-06-21T07:58:50.976Z,51.09
2023-06-21T08:01:18.456Z,50.94
2023-06-21T08:03:46.027Z,50.03
2023-06-21T08:06:13.581Z,49.48
2023-06-21T08:08:41.635Z,49.09
2023-06-21T08:11:09.874Z,47.69
2023-06-21T08:13:37.392Z,47.21
2023-06-21T08:16:05.222Z,47.08
2023-06-21T08:18:32.600Z,47.07
2023-06-21T08:21:00.559Z,46.88
2023-06-21T08:23:28.013Z,46.96
2023-06-21T08:25:55.491Z,46.78
2023-06-21T08:28:22.991Z,46.87
2023-06-21T08:30:51.138Z,47.37
2023-06-21T08:33:18.706Z,47.87
2023-06-21T08:35:46.188Z,47.98
2023-06-21T08:38:27.415Z,47.39
2023-06-21T08:41:03.251Z,47.87
2023-06-21T08:43:31.068Z,48.49
2023-06-21T08:46:07.675Z,48.28
2023-06-21T08:48:37.596Z,46.57
2023-06-21T08:51:06.130Z,47.32
2023-06-21T08:53:51.101Z,46.80
2023-06-21T08:56:24.241Z,46.79
2023-06-21T08:59:01.302Z,46.18
2023-06-21T09:01:32.612Z,46.49
2023-06-21T09:04:05.310Z,45.51
2023-06-21T09:06:33.437Z,44.78
2023-06-21T09:09:01.044Z,44.82
2023-06-21T09:11:29.038Z,44.65
2023-06-21T09:13:57.042Z,44.58
2023-06-21T09:16:24.673Z,44.90
2023-06-21T09:18:52.389Z,43.78
2023-06-21T09:21:19.968Z,44.04
2023-06-21T09:23:47.412Z,43.82
2023-06-21T09:26:15.629Z,43.39
2023-06-21T09:28:44.763Z,43.12
2023-06-21T09:31:13.644Z,42.42
2023-06-21T09:33:43.767Z,42.56
2023-06-21T09:36:12.662Z,42.29
2023-06-21T09:38:40.119Z,42.47
2023-06-21T09:41:12.865Z,42.23
2023-06-21T09:43:44.004Z,42.45
2023-06-21T09:46:14.052Z,41.93
2023-06-21T09:48:42.261Z,41.86
2023-06-21T09:51:12.609Z,41.45
2023-06-21T09:53:45.781Z,41.63
2023-06-21T09:56:17.540Z,42.51
2023-06-21T09:58:45.808Z,41.54
2023-06-21T10:01:17.208Z,41.94
2023-06-21T10:03:46.615Z,41.10
2023-06-21T10:06:20.365Z,41.47
2023-06-21T10:08:52.669Z,41.99
2023-06-21T10:11:21.359Z,42.06
2023-06-21T10:13:49.457Z,42.22
2023-06-21T10:16:19.946Z,41.97
2023-06-21T10:18:48.922Z,41.59
2023-06-21T10:21:18.867Z,42.81
2023-06-21T10:23:50.387Z,42.83
2023-06-21T10:26:21.063Z,43.09
2023-06-21T10:28:54.410Z,43.48
2023-06-21T10:31:22.929Z,43.42
2023-06-21T10:33:51.295Z,43.67
2023-06-21T10:36:26.673Z,43.61
2023-06-21T10:39:03.450Z,42.81
2023-06-21T10:41:31.505Z,42.26
2023-06-21T10:44:00.593Z,42.00
2023-06-21T10:46:28.529Z,42.01
2023-06-21T10:48:57.121Z,41.88
2023-06-21T10:51:25.037Z,41.10
2023-06-21T10:53:55.139Z,40.91
2023-06-21T10:56:24.725Z,41.52
2023-06-21T10:58:52.199Z,41.41
2023-06-21T11:01:22.240Z,41.84
2023-06-21T11:03:51.045Z,42.80
2023-06-21T11:06:33.420Z,42.49
2023-06-21T11:09:12.147Z,40.49
2023-06-21T11:11:49.821Z,40.36
2023-06-21T11:14:22.366Z,40.88
2023-06-21T11:17:05.581Z,40.83
2023-06-21T11:19:33.107Z,41.34
2023-06-21T11:22:15.067Z,42.11
2023-06-21T11:25:10.259Z,41.87
2023-06-21T11:27:38.205Z,42.69
2023-06-21T11:30:24.931Z,43.26
2023-06-21T11:32:57.401Z,42.41
2023-06-21T11:35:47.935Z,42.42
2023-06-21T11:38:15.436Z,42.03
2023-06-21T11:40:43.283Z,40.33
2023-06-21T11:43:16.818Z,39.58
2023-06-21T11:45:57.006Z,39.69
2023-06-21T11:48:28.253Z,39.89
2023-06-21T11:50:57.676Z,39.55
2023-06-21T11:53:30.751Z,39.60
2023-06-21T11:56:01.599Z,39.06
2023-06-21T11:58:30.353Z,38.45
2023-06-21T12:00:58.996Z,38.34
2023-06-21T12:03:27.236Z,38.49
2023-06-21T12:06:02.255Z,38.95
2023-06-21T12:08:31.766Z,39.27
2023-06-21T12:11:01.356Z,38.76
2023-06-21T12:13:30.994Z,38.03
2023-06-21T12:16:06.482Z,37.46
2023-06-21T12:18:36.002Z,37.22
2023-06-21T12:21:05.573Z,37.77
2023-06-21T12:23:33.122Z,37.80
2023-06-21T12:26:02.868Z,37.99
2023-06-21T12:28:32.444Z,38.07
2023-06-21T12:31:10.220Z,38.61
2023-06-21T12:33:42.142Z,38.67
2023-06-21T12:36:19.841Z,38.90
2023-06-21T12:39:07.438Z,38.29
2023-06-21T12:41:36.096Z,38.01
2023-06-21T12:44:07.415Z,38.41
2023-06-21T12:46:40.860Z,38.78
2023-06-21T12:49:08.282Z,38.51
2023-06-21T12:51:39.332Z,37.92
2023-06-21T12:54:08.831Z,37.94
2023-06-21T12:57:02.528Z,37.99
2023-06-21T12:59:30.263Z,38.30
2023-06-21T13:01:59.030Z,38.21
2023-06-21T13:04:26.626Z,38.24
2023-06-21T13:06:54.224Z,38.09
2023-06-21T13:09:22.538Z,38.08
2023-06-21T13:11:49.937Z,37.84
2023-06-21T13:14:17.327Z,37.97
2023-06-21T13:16:44.771Z,39.29
2023-06-21T13:19:12.174Z,38.95
2023-06-21T13:21:39.636Z,38.74
2023-06-21T13:24:07.125Z,38.15
2023-06-21T13:26:34.652Z,38.24
2023-06-21T13:29:02.023Z,38.10
2023-06-21T13:31:29.437Z,37.93
2023-06-21T13:33:56.827Z,38.27
2023-06-21T13:36:24.472Z,38.30
2023-06-21T13:38:52.119Z,38.24
2023-06-21T13:41:19.814Z,38.09
2023-06-21T13:43:48.738Z,38.36
2023-06-21T13:46:16.525Z,38.25
2023-06-21T13:48:43.973Z,37.88
2023-06-21T13:51:11.666Z,37.39
2023-06-21T13:53:39.331Z,36.58
2023-06-21T13:56:06.746Z,35.39
2023-06-21T13:58:34.195Z,35.24
2023-06-21T14:01:01.632Z,35.64
2023-06-21T14:03:30.170Z,35.76
2023-06-21T14:05:58.198Z,35.66
2023-06-21T14:08:25.759Z,35.97
2023-06-21T14:10:53.321Z,35.24
2023-06-21T14:13:22.738Z,36.47
2023-06-21T14:15:50.604Z,35.70
2023-06-21T14:18:18.655Z,35.49
2023-06-21T14:20:46.548Z,35.59
2023-06-21T14:23:14.090Z,35.20
2023-06-21T14:25:44.829Z,35.30
2023-06-21T14:28:13.984Z,35.54
2023-06-21T14:30:41.581Z,35.57
2023-06-21T14:33:09.215Z,35.90
2023-06-21T14:35:36.973Z,36.29
2023-06-21T14:38:08.723Z,35.48
2023-06-21T14:40:36.513Z,35.92
2023-06-21T14:43:04.021Z,35.38
2023-06-21T14:45:31.589Z,35.38
2023-06-21T14:47:59.943Z,34.54
2023-06-21T14:50:28.948Z,35.07
2023-06-21T14:52:56.810Z,34.35
2023-06-21T14:55:24.320Z,34.77
2023-06-21T14:57:54.422Z,35.09
2023-06-21T15:00:55.077Z,34.74
2023-06-21T15:03:22.594Z,35.00
2023-06-21T15:06:04.941Z,35.40
2023-06-21T15:08:33.499Z,34.78
2023-06-21T15:11:00.984Z,34.31
2023-06-21T15:13:28.462Z,35.25
2023-06-21T15:15:56.910Z,35.68
2023-06-21T15:18:24.332Z,35.22
2023-06-21T15:20:51.781Z,35.50
2023-06-21T15:23:19.267Z,34.74
2023-06-21T15:25:46.867Z,35.05
2023-06-21T15:28:14.330Z,35.64
2023-06-21T15:30:41.773Z,35.33
2023-06-21T15:33:11.094Z,35.20
2023-06-21T15:35:38.560Z,35.49
2023-06-21T15:38:06.013Z,35.45
2023-06-21T15:40:33.454Z,36.22
2023-06-21T15:43:00.865Z,36.62
2023-06-21T15:45:28.762Z,36.20
2023-06-21T15:47:56.580Z,36.17
2023-06-21T15:50:24.016Z,36.12
2023-06-21T15:52:52.887Z,36.73
2023-06-21T15:55:20.590Z,36.57
2023-06-21T15:57:49.090Z,36.24
2023-06-21T16:00:17.096Z,35.99
2023-06-21T16:02:47.009Z,35.97
2023-06-21T16:05:14.561Z,35.99
2023-06-21T16:07:41.971Z,36.22
2023-06-21T16:10:09.473Z,36.45
2023-06-21T16:12:37.329Z,37.05
2023-06-21T16:15:05.224Z,37.68
2023-06-21T16:17:32.716Z,38.34
2023-06-21T16:20:00.188Z,38.48
2023-06-21T16:22:27.600Z,38.28
2023-06-21T16:24:55.047Z,38.10
2023-06-21T16:27:23.652Z,38.11
2023-06-21T16:29:51.141Z,38.26
2023-06-21T16:32:18.501Z,37.71
2023-06-21T16:34:47.091Z,37.98
2023-06-21T16:37:14.613Z,38.36
2023-06-21T16:39:42.137Z,37.92
2023-06-21T16:42:09.792Z,38.57
2023-06-21T16:44:37.207Z,37.85
2023-06-21T16:47:04.915Z,38.12
2023-06-21T16:49:32.339Z,38.24
2023-06-21T16:51:59.843Z,38.46
2023-06-21T16:54:27.191Z,38.39
2023-06-21T16:57:02.397Z,38.75
2023-06-21T16:59:31.418Z,38.71
2023-06-21T17:01:59.238Z,38.69
2023-06-21T17:04:26.837Z,39.04
2023-06-21T17:06:54.208Z,38.73
2023-06-21T17:09:21.834Z,38.58
2023-06-21T17:11:50.146Z,39.04
2023-06-21T17:14:17.592Z,39.18
2023-06-21T17:16:45.088Z,39.57
2023-06-21T17:19:17.162Z,39.33
2023-06-21T17:21:44.639Z,39.45
2023-06-21T17:24:12.158Z,39.39
2023-06-21T17:26:39.717Z,39.64
2023-06-21T17:29:07.269Z,39.95
2023-06-21T17:31:34.780Z,39.65
2023-06-21T17:34:03.162Z,40.23
2023-06-21T17:36:30.510Z,39.98
2023-06-21T17:38:57.973Z,39.93
2023-06-21T17:41:25.458Z,40.06
2023-06-21T17:43:52.950Z,39.99
2023-06-21T17:46:20.363Z,39.44
2023-06-21T17:48:47.886Z,39.63
2023-06-21T17:51:16.317Z,39.72
2023-06-21T17:53:43.793Z,39.71
2023-06-21T17:56:11.168Z,40.16
2023-06-21T17:58:38.679Z,40.80
2023-06-21T18:01:06.167Z,40.76
2023-06-21T18:03:33.665Z,41.03
2023-06-21T18:06:01.228Z,40.68
2023-06-21T18:08:29.474Z,40.95
2023-06-21T18:10:58.888Z,41.29
2023-06-21T18:13:26.317Z,41.08
2023-06-21T18:15:54.357Z,41.42
2023-06-21T18:18:23.503Z,41.26
2023-06-21T18:20:52.306Z,41.57
2023-06-21T18:23:19.895Z,41.97
2023-06-21T18:25:47.316Z,41.91
2023-06-21T18:28:14.674Z,41.51
2023-06-21T18:30:42.152Z,42.19
2023-06-21T18:33:09.567Z,42.18
2023-06-21T18:35:40.318Z,42.26
2023-06-21T18:38:08.491Z,42.29
2023-06-21T18:40:36.790Z,42.48
2023-06-21T18:43:04.256Z,42.84
2023-06-21T18:45:31.662Z,42.64
2023-06-21T18:47:59.133Z,43.16
2023-06-21T18:50:26.746Z,43.17
2023-06-21T18:52:54.549Z,43.16
2023-06-21T18:55:22.846Z,43.44
2023-06-21T18:57:50.253Z,43.84
2023-06-21T19:00:17.718Z,44.33
2023-06-21T19:02:45.144Z,44.03
2023-06-21T19:05:12.711Z,44.24
2023-06-21T19:07:40.279Z,44.35
2023-06-21T19:10:10.011Z,44.19
2023-06-21T19:12:38.109Z,44.33
2023-06-21T19:15:07.039Z,44.60
2023-06-21T19:17:34.777Z,44.43
2023-06-21T19:20:02.529Z,44.79
2023-06-21T19:22:31.350Z,44.39
2023-06-21T19:24:58.981Z,44.89
2023-06-21T19:27:26.424Z,44.76
2023-06-21T19:29:53.829Z,44.93
2023-06-21T19:32:21.499Z,44.98
2023-06-21T19:34:49.516Z,44.99
2023-06-21T19:37:17.262Z,44.93
2023-06-21T19:39:45.560Z,44.80
2023-06-21T19:42:13.810Z,44.91
2023-06-21T19:44:41.976Z,45.13
2023-06-21T19:47:12.097Z,44.88
2023-06-21T19:49:41.057Z,45.65
2023-06-21T19:52:09.085Z,45.99
2023-06-21T19:54:36.435Z,45.84
2023-06-21T19:57:04.071Z,46.21
2023-06-21T19:59:31.743Z,46.70
2023-06-21T20:01:59.174Z,47.00
2023-06-21T20:04:26.661Z,47.74
2023-06-21T20:06:55.652Z,48.07
2023-06-21T20:09:23.069Z,48.56
2023-06-21T20:11:50.598Z,48.70
2023-06-21T20:14:18.113Z,49.00
2023-06-21T20:16:45.929Z,49.45
2023-06-21T20:19:16.028Z,49.21
2023-06-21T20:21:46.610Z,49.45
2023-06-21T20:24:14.753Z,49.35
2023-06-21T20:26:43.213Z,49.82
2023-06-21T20:29:10.651Z,49.90
2023-06-21T20:31:38.202Z,49.91
2023-06-21T20:34:05.889Z,49.76
2023-06-21T20:36:34.659Z,50.11
2023-06-21T20:39:07.207Z,50.54
2023-06-21T20:41:34.649Z,50.53
2023-06-21T20:44:02.986Z,50.34
2023-06-21T20:46:32.762Z,51.04
2023-06-21T20:49:02.825Z,51.25
2023-06-21T20:51:30.422Z,51.88
2023-06-21T20:53:58.164Z,51.89
2023-06-21T20:56:27.145Z,52.16
2023-06-21T20:58:55.866Z,52.41
2023-06-21T21:01:24.124Z,52.69
2023-06-21T21:03:53.548Z,52.92
2023-06-21T21:06:21.012Z,53.52
2023-06-21T21:08:50.847Z,53.58
2023-06-21T21:11:18.461Z,53.68
2023-06-21T21:13:45.905Z,53.21
2023-06-21T21:16:13.304Z,53.31
2023-06-21T21:18:40.723Z,53.66
2023-06-21T21:21:10.778Z,53.28
2023-06-21T21:23:38.480Z,53.26
2023-06-21T21:26:05.983Z,53.12
2023-06-21T21:28:33.582Z,53.04
2023-06-21T21:31:01.970Z,53.46
2023-06-21T21:33:29.436Z,52.76
2023-06-21T21:35:56.868Z,52.97
2023-06-21T21:38:24.425Z,53.33
2023-06-21T21:40:51.860Z,53.70
2023-06-21T21:43:19.244Z,54.37
2023-06-21T21:45:47.449Z,54.46
2023-06-21T21:48:14.865Z,54.77
2023-06-21T21:50:42.337Z,55.35
2023-06-21T21:53:09.700Z,55.78
2023-06-21T21:55:37.171Z,56.09
2023-06-21T21:58:04.514Z,56.12
2023-06-21T22:00:32.056Z,56.25
2023-06-21T22:02:59.633Z,56.37
2023-06-21T22:05:27.123Z,56.50
2023-06-21T22:07:54.542Z,56.37
2023-06-21T22:10:36.846Z,56.62
2023-06-21T22:13:05.580Z,56.67
2023-06-21T22:15:32.971Z,56.03
2023-06-21T22:18:02.566Z,54.98
2023-06-21T22:20:30.800Z,55.29
2023-06-21T22:22:58.468Z,55.87
2023-06-21T22:25:25.908Z,56.65
2023-06-21T22:27:53.481Z,56.79
2023-06-21T22:30:21.006Z,57.05
2023-06-21T22:32:48.405Z,57.14
2023-06-21T22:35:16.150Z,57.06
2023-06-21T22:37:43.761Z,57.21
2023-06-21T22:40:11.632Z,57.30
2023-06-21T22:42:39.065Z,57.25
2023-06-21T22:45:07.010Z,57.86
2023-06-21T22:47:38.629Z,58.30
2023-06-21T22:50:07.247Z,58.34
2023-06-21T22:52:34.884Z,58.30
2023-06-21T22:55:02.364Z,58.64
2023-06-21T22:57:30.254Z,58.99
2023-06-21T22:59:57.687Z,58.80
2023-06-21T23:02:25.231Z,58.88
2023-06-21T23:04:52.902Z,58.98
2023-06-21T23:07:22.071Z,59.03
2023-06-21T23:09:49.517Z,59.40
2023-06-21T23:12:16.952Z,59.02
2023-06-21T23:14:47.583Z,58.43
2023-06-21T23:17:15.237Z,58.28
2023-06-21T23:19:42.652Z,58.17
2023-06-21T23:22:19.388Z,57.96
2023-06-21T23:24:46.888Z,57.85
2023-06-21T23:27:15.695Z,58.09
2023-06-21T23:29:43.803Z,57.99
2023-06-21T23:32:11.338Z,58.18
2023-06-21T23:34:39.196Z,58.08
2023-06-21T23:37:06.940Z,58.37
2023-06-21T23:39:34.399Z,59.12
2023-06-21T23:42:02.669Z,58.87
2023-06-21T23:44:31.846Z,58.91
2023-06-21T23:46:59.259Z,58.96
2023-06-21T23:49:26.711Z,59.28
2023-06-21T23:51:58.191Z,59.03
2023-06-21T23:54:27.405Z,59.14
2023-06-21T23:56:54.907Z,59.18
2023-06-21T23:59:22.421Z,59.17
